Bogota, New Jersey
Current Conditions -  °F | °C
As of 9:51 PM on Tuesday 25 Nov 2014 (Local Time) from KTEB Reporting Station
Clear Clear  
Wind Chill:   Ceiling: Unl
Heat Index:   Visibility: 10mi
Dew Point: -1°   Wind: 6mph
Humidity: 48%   Direction: 220°SW
Pressure: 30.12"   Gusts: NA
Location:  40.88°N, 74.03°W
Report Text: KTEB 260251Z 22005KT 10SM CLR 09/M01 A3012 RMK AO2 SLP201 T00941011 51024
Loading
Personal Weather Stations






























Interactive Weather Map New forecast layout! Learn more

10-Day Weather Forecast

Advertisements
Track Severe Weather on mobile